Time;durP1;ratioP1;P1;durP2;ratioP2;P2;SDS_P1;SDS_P2;PMS_P1;PMS_P2;Temp;Humidity;BMP_temperature;BMP_pressure;BME280_temperature;BME280_humidity;BME280_pressure;Samples;Min_cycle;Max_cycle;Signal;HPM_P1;HPM_P2
2022/03/18 00:00:00;;;;;;;21.95;11.13;;;5.00;99.90;;;;;;5071646;28;20029;-51
2022/03/18 00:02:27;;;;;;;21.20;11.43;;;5.00;99.90;;;;;;5071785;28;20025;-51
2022/03/18 00:04:56;;;;;;;25.67;11.80;;;5.10;99.90;;;;;;5071375;28;20054;-51
2022/03/18 00:07:22;;;;;;;24.48;11.18;;;5.00;99.90;;;;;;5071137;28;20044;-51
2022/03/18 00:09:48;;;;;;;23.05;10.73;;;5.00;99.90;;;;;;5071471;28;20070;-51
2022/03/18 00:12:14;;;;;;;24.50;11.45;;;5.00;99.90;;;;;;5071459;28;20028;-52
2022/03/18 00:14:40;;;;;;;20.73;11.32;;;5.10;99.90;;;;;;5071068;28;20106;-51
2022/03/18 00:17:10;;;;;;;22.23;10.75;;;5.20;99.90;;;;;;5071966;28;20067;-52
2022/03/18 00:19:38;;;;;;;27.23;11.02;;;5.40;99.90;;;;;;5071547;28;20115;-52
2022/03/18 00:22:04;;;;;;;22.90;11.00;;;5.40;99.90;;;;;;5087103;28;20465;-52
2022/03/18 00:24:34;;;;;;;25.33;10.70;;;5.40;99.90;;;;;;5071275;28;20035;-52
2022/03/18 00:27:01;;;;;;;26.05;11.15;;;5.40;99.90;;;;;;5071277;28;20162;-52
2022/03/18 00:29:26;;;;;;;20.45;10.82;;;5.40;99.90;;;;;;5071687;28;20512;-52
2022/03/18 00:31:53;;;;;;;23.27;12.20;;;5.40;99.90;;;;;;5070774;28;20031;-52
2022/03/18 00:34:19;;;;;;;26.17;12.40;;;5.30;99.90;;;;;;5070973;28;20424;-52
2022/03/18 00:36:44;;;;;;;20.92;11.65;;;5.20;99.90;;;;;;5071256;28;20090;-52
2022/03/18 00:39:10;;;;;;;24.35;12.90;;;5.20;99.90;;;;;;5070803;28;20392;-52
2022/03/18 00:41:36;;;;;;;27.20;13.48;;;5.20;99.90;;;;;;5070684;28;20025;-52
2022/03/18 00:44:02;;;;;;;22.80;12.60;;;5.30;99.90;;;;;;5069488;28;20025;-52
2022/03/18 00:46:27;;;;;;;24.83;12.95;;;5.20;99.90;;;;;;5070598;28;20119;-52
2022/03/18 00:54:22;;;;;;;22.45;12.98;;;5.20;99.90;;;;;;5070810;28;20051;-52
2022/03/18 00:56:48;;;;;;;22.25;12.77;;;5.10;99.90;;;;;;5071334;28;20461;-52
2022/03/18 00:59:14;;;;;;;23.58;12.40;;;4.90;99.90;;;;;;5071057;28;20063;-52
2022/03/18 01:01:39;;;;;;;23.08;13.77;;;4.80;99.90;;;;;;5070715;28;20094;-52
2022/03/18 01:04:05;;;;;;;21.85;11.80;;;4.70;99.90;;;;;;5070576;28;20063;-52
2022/03/18 01:06:32;;;;;;;25.33;12.05;;;4.60;99.90;;;;;;5069374;28;20587;-52
2022/03/18 01:08:58;;;;;;;23.02;12.57;;;4.50;99.90;;;;;;5069967;28;20081;-52
2022/03/18 01:11:23;;;;;;;21.85;12.88;;;4.60;99.90;;;;;;5070333;28;20020;-52
2022/03/18 01:13:49;;;;;;;23.58;12.15;;;4.60;99.90;;;;;;5069302;28;20343;-52
2022/03/18 01:16:15;;;;;;;26.25;11.77;;;4.70;99.90;;;;;;5069476;28;20036;-52
2022/03/18 01:18:40;;;;;;;19.92;11.48;;;4.60;99.90;;;;;;5070701;28;20051;-52
2022/03/18 01:21:06;;;;;;;21.17;11.40;;;4.50;99.90;;;;;;5070106;28;20327;-52
2022/03/18 01:23:31;;;;;;;18.85;11.95;;;4.30;99.90;;;;;;5070183;28;20021;-52
2022/03/18 01:25:57;;;;;;;20.42;12.18;;;4.00;99.90;;;;;;5086604;28;20154;-52
2022/03/18 01:28:24;;;;;;;23.73;12.15;;;4.00;99.90;;;;;;5086748;28;20025;-52
2022/03/18 01:30:50;;;;;;;26.58;12.70;;;4.00;99.90;;;;;;5070387;28;20009;-52
2022/03/18 01:33:15;;;;;;;26.50;12.98;;;4.00;99.90;;;;;;5070088;28;20025;-52
2022/03/18 01:35:41;;;;;;;25.08;13.38;;;3.90;99.90;;;;;;5070940;28;20440;-52
2022/03/18 01:38:07;;;;;;;23.40;14.05;;;3.90;99.90;;;;;;5071502;28;20094;-52
2022/03/18 01:40:33;;;;;;;24.13;14.75;;;3.90;99.90;;;;;;5070934;28;20120;-52
2022/03/18 01:42:59;;;;;;;35.83;15.65;;;4.10;99.90;;;;;;5071084;28;20529;-52
2022/03/18 01:45:25;;;;;;;30.10;14.65;;;4.30;99.90;;;;;;5070669;28;20033;-51
2022/03/18 01:47:51;;;;;;;32.60;15.75;;;4.30;99.90;;;;;;5085834;28;20059;-51
2022/03/18 01:50:17;;;;;;;29.17;13.73;;;4.30;99.90;;;;;;5069841;28;20063;-51
2022/03/18 01:52:44;;;;;;;26.15;13.82;;;4.30;99.90;;;;;;5069788;28;20027;-51
2022/03/18 01:55:10;;;;;;;21.02;13.18;;;4.20;99.90;;;;;;5068697;28;20024;-51
2022/03/18 01:57:36;;;;;;;24.20;14.05;;;4.10;99.90;;;;;;5069943;28;20078;-51
2022/03/18 02:00:04;;;;;;;28.58;14.95;;;4.20;99.90;;;;;;5070391;28;20060;-51
2022/03/18 02:02:30;;;;;;;27.60;15.52;;;4.20;99.90;;;;;;5070214;28;20032;-51
2022/03/18 02:04:56;;;;;;;31.60;14.85;;;4.10;99.90;;;;;;5070161;28;20028;-51
2022/03/18 02:07:21;;;;;;;31.75;14.68;;;4.30;99.90;;;;;;5070178;28;20395;-51
2022/03/18 02:09:47;;;;;;;30.60;14.20;;;4.20;99.90;;;;;;5069972;28;20032;-51
2022/03/18 02:12:13;;;;;;;30.38;14.70;;;4.00;99.90;;;;;;5070219;28;20032;-51
2022/03/18 02:14:44;;;;;;;35.17;14.63;;;3.90;99.90;;;;;;5070272;28;20067;-51
2022/03/18 02:17:12;;;;;;;32.42;15.02;;;4.00;99.90;;;;;;5069956;28;20056;-51
2022/03/18 02:19:38;;;;;;;30.08;15.77;;;4.00;99.90;;;;;;5070332;28;20036;-51
2022/03/18 02:22:11;;;;;;;32.25;15.55;;;4.10;99.90;;;;;;5073686;28;20435;-51
2022/03/18 02:24:42;;;;;;;26.77;15.60;;;4.30;99.90;;;;;;5074200;28;20035;-51
2022/03/18 02:27:08;;;;;;;32.05;15.27;;;4.40;99.90;;;;;;5074485;28;20044;-51
2022/03/18 02:29:34;;;;;;;32.97;14.73;;;4.40;99.90;;;;;;5073938;28;20025;-51
2022/03/18 02:32:05;;;;;;;23.00;14.38;;;4.40;99.90;;;;;;5073301;28;20031;-51
2022/03/18 02:34:31;;;;;;;25.75;15.23;;;4.30;99.90;;;;;;5071627;28;20032;-51
2022/03/18 02:36:57;;;;;;;30.55;15.05;;;4.40;99.90;;;;;;5073419;28;20516;-51
2022/03/18 02:39:23;;;;;;;26.45;15.23;;;4.40;99.90;;;;;;5073272;28;20017;-51
2022/03/18 02:41:48;;;;;;;28.35;15.93;;;4.50;99.90;;;;;;5072891;28;20056;-51
2022/03/18 02:44:14;;;;;;;28.60;14.68;;;4.50;99.90;;;;;;5071771;28;20330;-51
2022/03/18 02:46:40;;;;;;;31.58;15.90;;;4.50;99.90;;;;;;5073066;28;20029;-51
2022/03/18 02:49:06;;;;;;;27.73;14.90;;;4.40;99.90;;;;;;5072874;28;20032;-51
2022/03/18 02:51:33;;;;;;;34.30;15.77;;;4.40;99.90;;;;;;5072951;28;20436;-51
2022/03/18 02:53:59;;;;;;;31.60;15.68;;;4.40;99.90;;;;;;5072841;28;20024;-51
2022/03/18 02:56:25;;;;;;;25.25;14.52;;;4.40;99.90;;;;;;5072760;28;20029;-51
2022/03/18 02:58:51;;;;;;;29.52;15.38;;;4.40;99.90;;;;;;5073073;28;20035;-51
2022/03/18 03:01:17;;;;;;;27.88;14.40;;;4.50;99.90;;;;;;5072758;28;20024;-52
2022/03/18 03:03:43;;;;;;;27.38;15.05;;;4.40;99.90;;;;;;5072524;28;20032;-51
2022/03/18 03:08:53;;;;;;;26.77;14.10;;;4.20;99.90;;;;;;5072829;28;20070;-51
2022/03/18 03:11:20;;;;;;;30.30;14.40;;;4.20;99.90;;;;;;5072485;28;20020;-51
2022/03/18 03:13:45;;;;;;;33.80;14.95;;;4.30;99.90;;;;;;5072599;28;20036;-53
2022/03/18 03:16:11;;;;;;;24.33;14.57;;;4.20;99.90;;;;;;5072669;28;20381;-52
2022/03/18 03:18:37;;;;;;;29.20;14.48;;;4.00;99.90;;;;;;5072528;28;20028;-52
2022/03/18 03:21:03;;;;;;;26.45;14.98;;;4.00;99.90;;;;;;5072545;28;20012;-52
2022/03/18 03:23:28;;;;;;;27.67;14.52;;;4.10;99.90;;;;;;5072659;28;20490;-52
2022/03/18 03:25:55;;;;;;;30.52;14.43;;;4.10;99.90;;;;;;5072457;28;20035;-52
2022/03/18 03:28:21;;;;;;;23.02;13.90;;;4.10;99.90;;;;;;5072454;28;20486;-52
2022/03/18 03:30:48;;;;;;;29.85;13.77;;;4.00;99.90;;;;;;5072278;28;20031;-52
2022/03/18 03:33:14;;;;;;;31.83;14.05;;;4.00;99.90;;;;;;5071772;28;20525;-52
2022/03/18 03:35:41;;;;;;;32.45;14.20;;;4.10;99.90;;;;;;5072159;28;20032;-52
2022/03/18 03:38:06;;;;;;;24.90;14.15;;;4.10;99.90;;;;;;5072596;28;20028;-52
2022/03/18 03:40:32;;;;;;;26.35;13.63;;;4.10;99.90;;;;;;5071980;28;20055;-52
2022/03/18 03:42:58;;;;;;;23.23;13.80;;;4.20;99.90;;;;;;5072137;28;20099;-52
2022/03/18 03:45:24;;;;;;;28.65;14.00;;;4.10;99.90;;;;;;5072019;28;20171;-52
2022/03/18 03:47:50;;;;;;;27.33;13.93;;;4.10;99.90;;;;;;5071873;28;20020;-52
2022/03/18 03:50:17;;;;;;;25.55;13.52;;;3.90;99.90;;;;;;5071660;28;20025;-52
2022/03/18 03:52:43;;;;;;;23.92;13.02;;;3.80;99.90;;;;;;5071889;28;20032;-52
2022/03/18 03:55:11;;;;;;;30.90;13.30;;;3.80;99.90;;;;;;5071823;28;20080;-52
2022/03/18 03:57:38;;;;;;;22.80;14.70;;;3.80;99.90;;;;;;5072326;28;20032;-52
2022/03/18 04:00:05;;;;;;;29.08;14.27;;;3.80;99.90;;;;;;5071705;28;20505;-52
2022/03/18 04:02:31;;;;;;;27.67;14.38;;;3.90;99.90;;;;;;5071339;28;20024;-52
2022/03/18 04:04:57;;;;;;;30.85;14.30;;;3.80;99.90;;;;;;5071777;28;20028;-52
2022/03/18 04:07:25;;;;;;;23.85;14.52;;;3.70;99.90;;;;;;5086836;28;20505;-52
2022/03/18 04:09:53;;;;;;;26.30;14.18;;;3.60;99.90;;;;;;5071128;28;20028;-52
2022/03/18 04:12:22;;;;;;;29.60;15.00;;;3.60;99.90;;;;;;5071815;28;20117;-52
2022/03/18 04:14:49;;;;;;;30.88;15.40;;;3.60;99.90;;;;;;5071227;28;20278;-52
2022/03/18 04:17:15;;;;;;;29.05;15.20;;;3.70;99.90;;;;;;5071148;28;20025;-52
2022/03/18 04:19:40;;;;;;;29.95;15.50;;;3.70;99.90;;;;;;5071053;28;20055;-52
2022/03/18 04:22:06;;;;;;;31.63;15.20;;;3.80;99.90;;;;;;5071413;28;20077;-52
2022/03/18 04:24:32;;;;;;;32.92;16.30;;;3.80;99.90;;;;;;5070908;28;20229;-52
2022/03/18 04:26:58;;;;;;;26.85;15.35;;;3.70;99.90;;;;;;5071328;28;20046;-52
2022/03/18 04:29:24;;;;;;;31.92;15.32;;;3.70;99.90;;;;;;5070751;28;20021;-52
2022/03/18 04:31:51;;;;;;;25.20;14.68;;;3.60;99.90;;;;;;5071322;28;20036;-52
2022/03/18 04:34:16;;;;;;;32.22;15.05;;;3.50;99.90;;;;;;5086986;28;20545;-52
2022/03/18 04:36:42;;;;;;;32.58;14.98;;;3.50;99.90;;;;;;5070956;28;20155;-52
2022/03/18 04:39:08;;;;;;;28.42;15.80;;;3.50;99.90;;;;;;5071093;28;20033;-52
2022/03/18 04:41:34;;;;;;;32.70;16.42;;;3.40;99.90;;;;;;5070802;28;20036;-52
2022/03/18 04:44:01;;;;;;;29.30;15.43;;;3.50;99.90;;;;;;5070676;28;20428;-52
2022/03/18 04:46:28;;;;;;;30.70;16.25;;;3.40;99.90;;;;;;5070895;28;20107;-52
2022/03/18 04:48:54;;;;;;;29.05;16.20;;;3.40;99.90;;;;;;5071037;28;20025;-52
2022/03/18 04:51:20;;;;;;;35.17;17.10;;;3.60;99.90;;;;;;5070554;28;20027;-52
2022/03/18 04:53:45;;;;;;;30.73;15.57;;;3.60;99.90;;;;;;5070695;28;20501;-52
2022/03/18 04:57:15;;;;;;;28.58;15.88;;;3.50;99.90;;;;;;5070534;28;20029;-52
2022/03/18 04:58:57;;;;;;;42.50;16.08;;;3.40;99.90;;;;;;5070782;28;20021;-52
2022/03/18 05:01:23;;;;;;;25.00;15.18;;;3.40;99.90;;;;;;5070855;28;20040;-52
2022/03/18 05:03:49;;;;;;;37.50;16.30;;;3.40;99.90;;;;;;5070348;28;20024;-52
2022/03/18 05:06:15;;;;;;;31.42;15.52;;;3.40;99.90;;;;;;5070671;28;20027;-52
2022/03/18 05:08:40;;;;;;;36.40;15.27;;;3.30;99.90;;;;;;5070280;28;20044;-52
2022/03/18 05:11:06;;;;;;;31.98;15.50;;;3.10;99.90;;;;;;5070300;28;20070;-52
2022/03/18 05:13:32;;;;;;;33.35;16.80;;;3.10;99.90;;;;;;5070553;28;20035;-52
2022/03/18 05:15:58;;;;;;;28.52;16.77;;;3.20;99.90;;;;;;5071159;28;20029;-52
2022/03/18 05:18:23;;;;;;;31.92;17.45;;;3.20;99.90;;;;;;5071705;28;20035;-52
2022/03/18 05:20:49;;;;;;;36.88;17.27;;;3.20;99.90;;;;;;5071290;28;20032;-52
2022/03/18 05:23:14;;;;;;;29.60;16.90;;;3.20;99.90;;;;;;5070491;28;20036;-52
2022/03/18 05:25:40;;;;;;;30.50;16.08;;;3.30;99.90;;;;;;5069862;28;20042;-52
2022/03/18 05:28:07;;;;;;;36.35;16.50;;;3.40;99.90;;;;;;5070360;28;20043;-52
2022/03/18 05:30:33;;;;;;;42.30;17.98;;;3.20;99.90;;;;;;5069039;28;20394;-52
2022/03/18 05:32:59;;;;;;;36.40;18.17;;;3.30;99.90;;;;;;5070465;28;20027;-52
2022/03/18 05:35:25;;;;;;;39.30;17.75;;;3.40;99.90;;;;;;5070228;28;20028;-52
2022/03/18 05:37:51;;;;;;;28.10;16.20;;;3.40;99.90;;;;;;5070410;28;20066;-52
2022/03/18 05:40:18;;;;;;;35.83;17.65;;;3.40;99.90;;;;;;5069992;28;20024;-52
2022/03/18 05:42:47;;;;;;;32.28;16.70;;;3.30;99.90;;;;;;5069864;28;20060;-52
2022/03/18 05:45:14;;;;;;;32.10;16.60;;;3.20;99.90;;;;;;5070118;28;20056;-52
2022/03/18 05:47:40;;;;;;;29.75;16.55;;;3.20;99.90;;;;;;5070346;28;20028;-52
2022/03/18 05:50:07;;;;;;;37.60;17.35;;;3.10;99.90;;;;;;5070819;28;20035;-52
2022/03/18 05:52:34;;;;;;;30.70;16.20;;;3.10;99.90;;;;;;5070683;28;20078;-52
2022/03/18 05:54:59;;;;;;;30.90;16.25;;;3.10;99.90;;;;;;5070829;28;20108;-52
2022/03/18 05:57:26;;;;;;;32.40;15.85;;;3.10;99.90;;;;;;5075407;28;20056;-51
2022/03/18 05:59:54;;;;;;;30.33;15.63;;;3.20;99.90;;;;;;5074609;28;20107;-51
2022/03/18 06:02:20;;;;;;;32.75;15.68;;;3.20;99.90;;;;;;5074506;28;20493;-51
2022/03/18 06:04:46;;;;;;;29.13;15.02;;;3.20;99.90;;;;;;5073812;28;20115;-51
2022/03/18 06:07:12;;;;;;;32.67;15.23;;;3.30;99.90;;;;;;5073958;28;20049;-51
2022/03/18 06:12:22;;;;;;;32.15;15.77;;;3.50;99.90;;;;;;5073803;28;20074;-51
2022/03/18 06:14:48;;;;;;;30.13;15.98;;;3.60;99.90;;;;;;5073612;28;20028;-51
2022/03/18 06:17:14;;;;;;;41.63;17.13;;;3.70;99.90;;;;;;5073949;28;20043;-51
2022/03/18 06:19:39;;;;;;;45.72;17.90;;;3.70;99.90;;;;;;5073667;28;20044;-51
2022/03/18 06:22:05;;;;;;;43.38;16.17;;;3.70;99.90;;;;;;5073876;28;20031;-51
2022/03/18 06:24:31;;;;;;;34.42;15.80;;;3.80;99.90;;;;;;5074506;28;20031;-52
2022/03/18 06:26:57;;;;;;;46.38;15.73;;;3.80;99.90;;;;;;5073691;28;20101;-52
2022/03/18 06:29:23;;;;;;;32.95;14.95;;;3.80;99.90;;;;;;5073512;28;20020;-51
2022/03/18 06:31:50;;;;;;;39.03;16.45;;;3.80;99.90;;;;;;5079261;28;20119;-51
2022/03/18 06:34:16;;;;;;;34.20;15.20;;;3.80;99.90;;;;;;5090800;28;20377;-52
2022/03/18 06:36:42;;;;;;;32.17;15.23;;;3.90;99.90;;;;;;5080276;28;20062;-51
2022/03/18 06:39:08;;;;;;;36.60;15.13;;;4.00;99.90;;;;;;5073744;28;20036;-51
2022/03/18 06:41:35;;;;;;;29.95;16.15;;;4.00;99.90;;;;;;5081073;28;20032;-53
2022/03/18 06:44:00;;;;;;;32.30;15.18;;;4.30;99.90;;;;;;5078461;28;20037;-52
2022/03/18 06:46:26;;;;;;;31.73;14.82;;;4.50;99.90;;;;;;5074518;28;20510;-52
2022/03/18 06:48:52;;;;;;;38.38;15.93;;;4.60;99.90;;;;;;5077633;28;20033;-51
2022/03/18 06:51:18;;;;;;;32.03;15.20;;;4.70;99.90;;;;;;5074790;28;20393;-52
2022/03/18 06:53:44;;;;;;;46.00;15.35;;;4.80;99.90;;;;;;5080882;28;20032;-52
2022/03/18 06:56:12;;;;;;;42.25;15.13;;;4.90;99.90;;;;;;5075817;28;20036;-53
2022/03/18 06:58:38;;;;;;;25.30;13.45;;;5.00;99.90;;;;;;5092990;28;20024;-53
2022/03/18 07:01:04;;;;;;;26.60;13.65;;;4.90;99.90;;;;;;5085026;28;20043;-50
2022/03/18 07:03:29;;;;;;;30.27;14.05;;;5.10;99.90;;;;;;5083061;28;20385;-53
2022/03/18 07:05:55;;;;;;;26.50;13.77;;;5.30;99.90;;;;;;5082995;28;20388;-51
2022/03/18 07:08:20;;;;;;;30.88;14.05;;;5.50;99.90;;;;;;5075207;28;20045;-51
2022/03/18 07:10:46;;;;;;;28.50;13.95;;;5.70;99.90;;;;;;5075708;28;20020;-52
2022/03/18 07:13:12;;;;;;;25.13;12.45;;;5.80;99.90;;;;;;5080057;28;20109;-52
2022/03/18 07:15:37;;;;;;;37.95;12.30;;;5.80;99.90;;;;;;5078287;28;20404;-51
2022/03/18 07:18:04;;;;;;;26.40;11.60;;;5.80;99.90;;;;;;5079207;28;20367;-51
2022/03/18 07:20:32;;;;;;;28.23;12.30;;;5.90;99.90;;;;;;5076143;28;20039;-52
2022/03/18 07:23:06;;;;;;;22.35;11.90;;;6.00;99.90;;;;;;5070610;28;20044;-52
2022/03/18 07:25:33;;;;;;;30.33;12.48;;;6.20;99.90;;;;;;5074466;28;20131;-52
2022/03/18 07:27:59;;;;;;;36.75;11.95;;;6.50;99.90;;;;;;5069128;28;20067;-51
2022/03/18 07:30:25;;;;;;;30.45;12.38;;;6.80;99.90;;;;;;5077584;28;20020;-52
2022/03/18 07:32:51;;;;;;;24.20;11.57;;;7.00;99.90;;;;;;5082487;28;20029;-52
2022/03/18 07:35:17;;;;;;;21.33;9.75;;;7.00;99.90;;;;;;5074623;28;20048;-52
2022/03/18 07:37:44;;;;;;;19.98;10.30;;;7.00;99.90;;;;;;5077852;28;20059;-52
2022/03/18 07:40:11;;;;;;;24.70;10.02;;;7.20;99.90;;;;;;5075338;28;20035;-52
2022/03/18 07:42:50;;;;;;;20.58;8.73;;;7.30;99.90;;;;;;5076613;28;20099;-52
2022/03/18 07:45:28;;;;;;;22.17;9.60;;;7.30;99.90;;;;;;5073679;28;20549;-53
2022/03/18 07:47:56;;;;;;;22.67;7.90;;;7.40;99.90;;;;;;5072885;28;20111;-52
2022/03/18 07:50:24;;;;;;;19.40;8.45;;;7.50;99.90;;;;;;5071648;28;20513;-52
2022/03/18 07:52:55;;;;;;;14.82;7.93;;;7.60;99.90;;;;;;5068059;28;20032;-52
2022/03/18 07:55:24;;;;;;;20.92;8.68;;;7.70;99.90;;;;;;5069855;28;20388;-52
2022/03/18 07:57:51;;;;;;;22.02;8.98;;;7.90;99.90;;;;;;5063428;28;20058;-52
2022/03/18 08:00:17;;;;;;;20.88;9.02;;;8.00;99.90;;;;;;5065197;28;20097;-52
2022/03/18 08:02:44;;;;;;;17.88;8.73;;;8.20;99.90;;;;;;5071254;28;20039;-52
2022/03/18 08:05:11;;;;;;;20.98;9.23;;;8.20;99.90;;;;;;5065565;28;20119;-52
2022/03/18 08:07:37;;;;;;;14.93;7.70;;;8.60;99.90;;;;;;5067428;28;20083;-52
2022/03/18 08:10:04;;;;;;;18.55;8.73;;;10.00;99.90;;;;;;5065544;28;20027;-53
2022/03/18 08:12:31;;;;;;;19.25;7.43;;;11.70;99.90;;;;;;5070292;28;20025;-53
2022/03/18 08:15:02;;;;;;;18.60;7.85;;;13.40;99.90;;;;;;5067421;28;20055;-54
2022/03/18 08:17:28;;;;;;;15.85;7.20;;;14.50;99.90;;;;;;5068311;28;20031;-54
2022/03/18 08:19:54;;;;;;;18.60;7.28;;;15.40;98.10;;;;;;5068246;28;20100;-54
2022/03/18 08:22:21;;;;;;;15.25;7.03;;;15.80;96.10;;;;;;5071528;28;20043;-54
2022/03/18 08:24:49;;;;;;;17.20;6.93;;;16.70;94.70;;;;;;5070426;28;20249;-54
2022/03/18 08:27:16;;;;;;;16.33;6.75;;;17.00;93.20;;;;;;5066257;28;20115;-54
2022/03/18 08:29:42;;;;;;;15.52;6.05;;;17.20;92.20;;;;;;5071578;28;20103;-55
2022/03/18 08:32:12;;;;;;;15.88;5.97;;;17.30;91.90;;;;;;5065417;28;20545;-55
2022/03/18 08:34:38;;;;;;;25.52;6.55;;;17.60;91.60;;;;;;5067638;28;20028;-54
2022/03/18 08:37:08;;;;;;;21.13;7.45;;;17.90;89.80;;;;;;5067245;28;20457;-54
2022/03/18 08:39:38;;;;;;;10.15;5.55;;;17.80;89.10;;;;;;5067931;28;20461;-54
2022/03/18 08:42:04;;;;;;;8.27;4.70;;;17.60;90.00;;;;;;5067752;28;20609;-55
2022/03/18 08:44:30;;;;;;;13.45;4.90;;;17.90;88.20;;;;;;5064966;28;20090;-54
2022/03/18 08:46:57;;;;;;;9.73;4.90;;;17.50;88.80;;;;;;5064582;28;20090;-54
2022/03/18 08:49:23;;;;;;;9.45;3.85;;;17.70;88.10;;;;;;5065054;28;20037;-54
2022/03/18 08:51:49;;;;;;;13.05;4.30;;;17.90;85.20;;;;;;5067382;28;20060;-54
2022/03/18 08:54:14;;;;;;;7.30;3.70;;;17.80;83.80;;;;;;5069497;28;20044;-53
2022/03/18 08:56:40;;;;;;;8.60;3.42;;;17.60;85.40;;;;;;5072444;28;20024;-54
2022/03/18 08:59:06;;;;;;;11.68;3.60;;;17.70;83.50;;;;;;5068121;28;20155;-54
2022/03/18 09:01:37;;;;;;;16.92;3.70;;;18.40;80.40;;;;;;5069746;28;20088;-54
2022/03/18 09:04:03;;;;;;;6.97;3.17;;;18.40;80.60;;;;;;5065293;28;20123;-54
2022/03/18 09:06:29;;;;;;;11.90;3.38;;;18.30;79.90;;;;;;5067232;28;20511;-53
2022/03/18 09:08:57;;;;;;;7.30;3.40;;;18.20;79.20;;;;;;5065345;28;20391;-53
2022/03/18 09:11:23;;;;;;;9.02;3.20;;;18.00;82.50;;;;;;5065480;28;20032;-56
2022/03/18 09:13:48;;;;;;;14.40;4.50;;;18.40;81.30;;;;;;5067505;28;20027;-56
2022/03/18 09:16:15;;;;;;;15.80;3.78;;;18.80;79.80;;;;;;5069056;28;20489;-54
2022/03/18 09:18:41;;;;;;;15.57;3.65;;;19.00;77.40;;;;;;5070852;28;20641;-55
2022/03/18 09:21:07;;;;;;;12.98;3.30;;;19.20;76.20;;;;;;5069341;28;20037;-55
2022/03/18 09:23:33;;;;;;;10.95;3.30;;;19.20;75.20;;;;;;5065908;28;20041;-55
2022/03/18 09:25:58;;;;;;;9.95;3.40;;;19.40;73.50;;;;;;5070696;28;20427;-56
2022/03/18 09:28:24;;;;;;;9.73;2.80;;;19.30;75.20;;;;;;5068836;28;20025;-56
2022/03/18 09:30:50;;;;;;;9.05;2.60;;;20.00;71.70;;;;;;5066912;28;20028;-55
2022/03/18 09:33:16;;;;;;;7.15;2.72;;;19.60;69.20;;;;;;5057245;28;20048;-55
2022/03/18 09:35:43;;;;;;;8.48;2.63;;;19.40;69.30;;;;;;5064406;28;20557;-55
2022/03/18 09:38:09;;;;;;;7.15;2.65;;;19.90;68.60;;;;;;5070402;28;20543;-54
2022/03/18 09:40:35;;;;;;;7.75;2.60;;;19.70;69.20;;;;;;5070982;28;20393;-57
2022/03/18 09:43:04;;;;;;;6.15;2.08;;;19.50;68.70;;;;;;5068355;28;20028;-56
2022/03/18 09:45:32;;;;;;;7.05;3.00;;;19.20;67.60;;;;;;5065289;28;20620;-56
2022/03/18 09:47:59;;;;;;;9.52;3.38;;;19.30;68.20;;;;;;5071542;28;20496;-55
2022/03/18 09:50:26;;;;;;;10.85;2.42;;;18.90;66.60;;;;;;5065823;28;20020;-56
2022/03/18 09:52:52;;;;;;;9.18;2.63;;;18.90;67.50;;;;;;5069771;28;20033;-55
2022/03/18 09:55:17;;;;;;;7.72;2.65;;;18.50;67.80;;;;;;5065906;28;20055;-54
2022/03/18 09:57:43;;;;;;;12.60;2.95;;;18.20;68.30;;;;;;5062315;28;20025;-54
2022/03/18 10:00:09;;;;;;;7.32;2.50;;;18.40;71.10;;;;;;5064523;28;20082;-53
2022/03/18 10:02:35;;;;;;;11.13;2.88;;;18.60;66.30;;;;;;5067287;28;20063;-54
2022/03/18 10:05:10;;;;;;;8.15;2.97;;;18.40;68.60;;;;;;5066613;28;20115;-53
2022/03/18 10:07:36;;;;;;;4.55;2.65;;;18.50;69.20;;;;;;5063414;28;20089;-53
2022/03/18 10:10:15;;;;;;;4.65;2.42;;;18.70;68.90;;;;;;5066919;28;20020;-55
2022/03/18 10:12:47;;;;;;;10.38;2.75;;;19.30;65.70;;;;;;5065086;28;20365;-54
2022/03/18 10:15:27;;;;;;;9.30;2.75;;;19.00;67.50;;;;;;5066675;28;20539;-53
2022/03/18 10:17:58;;;;;;;10.85;2.42;;;18.90;67.20;;;;;;5066941;28;20106;-53
2022/03/18 10:20:28;;;;;;;26.60;3.58;;;18.40;67.50;;;;;;5070369;28;20032;-52
2022/03/18 10:22:55;;;;;;;10.77;3.10;;;17.80;69.20;;;;;;5066287;28;20043;-53
2022/03/18 10:25:37;;;;;;;6.85;2.50;;;17.50;70.00;;;;;;5068378;28;20036;-54
2022/03/18 10:28:05;;;;;;;5.93;2.95;;;17.40;68.70;;;;;;5070131;28;20025;-54
2022/03/18 10:30:31;;;;;;;12.02;3.13;;;17.60;71.60;;;;;;5066192;28;20046;-54
2022/03/18 10:32:57;;;;;;;6.45;3.10;;;17.80;71.20;;;;;;5068679;28;20124;-54
2022/03/18 10:38:31;;;;;;;5.90;2.60;;;18.00;71.50;;;;;;5069341;28;20054;-53
2022/03/18 10:40:58;;;;;;;10.63;3.10;;;19.00;68.70;;;;;;5071016;28;20558;-53
2022/03/18 10:43:24;;;;;;;10.00;3.20;;;19.30;67.80;;;;;;5075228;28;20036;-55
2022/03/18 10:46:06;;;;;;;9.73;2.70;;;19.20;66.90;;;;;;5061524;28;20160;-55
2022/03/18 10:48:32;;;;;;;6.50;2.80;;;19.70;66.60;;;;;;5056423;28;20088;-54
2022/03/18 10:51:04;;;;;;;8.63;2.38;;;19.60;67.10;;;;;;5064885;28;20404;-54
2022/03/18 10:53:31;;;;;;;7.70;2.87;;;19.50;67.10;;;;;;5064483;28;20032;-54
2022/03/18 10:56:02;;;;;;;16.88;3.47;;;19.40;66.20;;;;;;5062453;28;20036;-53
2022/03/18 10:58:31;;;;;;;10.00;3.38;;;19.30;66.80;;;;;;5063900;28;20563;-53
2022/03/18 11:01:00;;;;;;;6.70;3.38;;;19.30;67.00;;;;;;5072398;28;20020;-54
2022/03/18 11:03:26;;;;;;;7.47;3.05;;;19.40;68.00;;;;;;5064721;28;20408;-53
2022/03/18 11:05:52;;;;;;;7.07;2.92;;;19.40;67.90;;;;;;5074170;28;20385;-55
2022/03/18 11:08:22;;;;;;;11.63;3.20;;;19.50;67.20;;;;;;5073572;28;20533;-55
2022/03/18 11:11:15;;;;;;;13.95;3.70;;;19.80;68.10;;;;;;5069371;28;20432;-55
2022/03/18 11:14:04;;;;;;;10.73;2.88;;;20.00;66.10;;;;;;5070042;28;20440;-54
2022/03/18 11:16:38;;;;;;;13.27;3.20;;;20.20;66.20;;;;;;5070332;28;20028;-54
2022/03/18 11:19:08;;;;;;;10.10;2.97;;;20.50;66.30;;;;;;5071916;28;20031;-55
2022/03/18 11:21:41;;;;;;;17.67;3.60;;;20.90;65.60;;;;;;5065550;28;20043;-54
2022/03/18 11:24:07;;;;;;;;;;;20.50;64.20;;;;;;5060381;28;20022;-55
2022/03/18 11:26:35;;;;;;;12.27;3.10;;;20.30;66.20;;;;;;5052954;28;19955;-55
2022/03/18 11:29:10;;;;;;;18.73;3.55;;;20.60;66.10;;;;;;5067891;28;20444;-55
2022/03/18 11:31:36;;;;;;;5.72;2.78;;;20.70;64.70;;;;;;5067547;28;20157;-54
2022/03/18 11:34:10;;;;;;;56.03;6.00;;;21.10;63.00;;;;;;5064340;28;20054;-54
2022/03/18 11:36:43;;;;;;;18.55;3.53;;;20.30;62.90;;;;;;5073177;28;20028;-54
2022/03/18 11:39:09;;;;;;;10.57;3.55;;;19.30;65.80;;;;;;5073408;28;20068;-55
2022/03/18 11:41:45;;;;;;;8.90;2.92;;;19.50;66.50;;;;;;5069928;28;20024;-54
2022/03/18 11:44:31;;;;;;;12.15;3.10;;;19.80;67.00;;;;;;5073052;28;20036;-54
2022/03/18 11:47:29;;;;;;;18.05;3.70;;;19.90;66.00;;;;;;5066497;28;20024;-55
2022/03/18 11:49:55;;;;;;;6.95;2.92;;;20.60;63.90;;;;;;5069241;28;20556;-55
2022/03/18 11:52:21;;;;;;;8.52;3.00;;;20.20;63.60;;;;;;5077275;28;20013;-55
2022/03/18 11:54:54;;;;;;;10.90;3.40;;;20.40;65.30;;;;;;5074479;28;20523;-55
2022/03/18 11:57:34;;;;;;;14.75;3.25;;;20.40;64.00;;;;;;5069409;28;20036;-55
2022/03/18 12:00:00;;;;;;;5.68;3.30;;;20.60;64.20;;;;;;5075237;28;20071;-54
2022/03/18 12:02:52;;;;;;;12.07;3.92;;;21.10;62.70;;;;;;5079744;28;20028;-54
2022/03/18 12:05:19;;;;;;;14.13;3.30;;;21.10;62.60;;;;;;5069379;28;20536;-56
2022/03/18 12:07:47;;;;;;;18.23;3.42;;;21.60;61.70;;;;;;5068334;28;20044;-55
2022/03/18 12:10:14;;;;;;;5.45;2.83;;;22.10;60.10;;;;;;5064734;28;20112;-55
2022/03/18 12:12:48;;;;;;;8.20;3.45;;;22.30;59.60;;;;;;5067303;28;20027;-55
2022/03/18 12:15:22;;;;;;;6.82;3.10;;;21.70;59.80;;;;;;5068379;28;20028;-55
2022/03/18 12:17:51;;;;;;;9.25;2.80;;;22.40;60.20;;;;;;5068637;28;20112;-55
2022/03/18 12:20:23;;;;;;;17.85;3.22;;;22.50;58.20;;;;;;5065656;28;20072;-55
2022/03/18 12:22:51;;;;;;;5.55;3.00;;;23.10;57.60;;;;;;5069170;28;20051;-55
2022/03/18 12:25:18;;;;;;;7.93;2.83;;;22.70;56.90;;;;;;5066506;28;20057;-56
2022/03/18 12:27:44;;;;;;;7.65;3.00;;;23.10;56.30;;;;;;5067416;28;20102;-56
2022/03/18 12:30:20;;;;;;;12.05;3.55;;;22.60;55.90;;;;;;5069021;28;20028;-55
2022/03/18 12:32:54;;;;;;;12.45;3.03;;;22.70;57.00;;;;;;5072676;28;20032;-55
2022/03/18 12:35:35;;;;;;;9.25;3.22;;;22.70;56.80;;;;;;5068971;28;20663;-55
2022/03/18 12:38:16;;;;;;;7.63;3.08;;;23.00;54.60;;;;;;5082323;28;20036;-55
2022/03/18 12:40:53;;;;;;;8.43;2.83;;;23.20;55.30;;;;;;5071003;28;20386;-56
2022/03/18 12:43:18;;;;;;;8.25;2.88;;;23.50;56.40;;;;;;5072138;28;20024;-55
2022/03/18 12:45:45;;;;;;;12.93;4.53;;;23.20;55.30;;;;;;5076705;28;20186;-54
2022/03/18 12:48:16;;;;;;;7.68;3.45;;;23.20;54.70;;;;;;5069856;28;20386;-54
2022/03/18 12:50:55;;;;;;;7.15;3.05;;;22.70;55.00;;;;;;5073148;28;20535;-55
2022/03/18 12:53:26;;;;;;;6.97;2.78;;;23.30;55.00;;;;;;5070119;28;20024;-55